sensor_id;sensor_type;location;lat;lon;timestamp;P1;durP1;ratioP1;P2;durP2;ratioP2
34369;SDS011;20635;55.812;37.560;2022-11-11T00:02:11;16.30;;;8.73;;
34369;SDS011;20635;55.812;37.560;2022-11-11T00:04:55;16.05;;;8.75;;
34369;SDS011;20635;55.812;37.560;2022-11-11T00:07:40;15.63;;;9.38;;
34369;SDS011;20635;55.812;37.560;2022-11-11T00:10:25;10.52;;;8.00;;
34369;SDS011;20635;55.812;37.560;2022-11-11T00:13:10;10.75;;;7.65;;
34369;SDS011;20635;55.812;37.560;2022-11-11T00:15:54;12.13;;;8.77;;
34369;SDS011;20635;55.812;37.560;2022-11-11T00:18:40;11.48;;;8.82;;
34369;SDS011;20635;55.812;37.560;2022-11-11T00:21:43;10.05;;;8.50;;
34369;SDS011;20635;55.812;37.560;2022-11-11T00:24:46;10.30;;;8.88;;
34369;SDS011;20635;55.812;37.560;2022-11-11T00:27:49;14.05;;;8.93;;
34369;SDS011;20635;55.812;37.560;2022-11-11T00:30:34;10.50;;;7.85;;
34369;SDS011;20635;55.812;37.560;2022-11-11T00:33:18;9.88;;;8.30;;
34369;SDS011;20635;55.812;37.560;2022-11-11T00:36:03;11.23;;;8.02;;
34369;SDS011;20635;55.812;37.560;2022-11-11T00:38:48;10.13;;;8.10;;
34369;SDS011;20635;55.812;37.560;2022-11-11T00:41:35;10.63;;;8.60;;
34369;SDS011;20635;55.812;37.560;2022-11-11T00:44:19;11.20;;;8.70;;
34369;SDS011;20635;55.812;37.560;2022-11-11T00:47:04;9.30;;;7.43;;
34369;SDS011;20635;55.812;37.560;2022-11-11T00:50:12;9.20;;;8.20;;
34369;SDS011;20635;55.812;37.560;2022-11-11T00:53:18;10.10;;;8.13;;
34369;SDS011;20635;55.812;37.560;2022-11-11T00:56:04;10.82;;;8.50;;
34369;SDS011;20635;55.812;37.560;2022-11-11T00:58:49;12.70;;;8.45;;
34369;SDS011;20635;55.812;37.560;2022-11-11T01:01:34;11.27;;;8.18;;
34369;SDS011;20635;55.812;37.560;2022-11-11T01:04:19;10.73;;;8.60;;
34369;SDS011;20635;55.812;37.560;2022-11-11T01:07:04;9.90;;;8.13;;
34369;SDS011;20635;55.812;37.560;2022-11-11T01:09:48;11.73;;;8.07;;
34369;SDS011;20635;55.812;37.560;2022-11-11T01:12:32;11.77;;;8.15;;
34369;SDS011;20635;55.812;37.560;2022-11-11T01:15:16;9.32;;;7.63;;
34369;SDS011;20635;55.812;37.560;2022-11-11T01:18:00;11.80;;;8.90;;
34369;SDS011;20635;55.812;37.560;2022-11-11T01:20:45;11.32;;;8.48;;
34369;SDS011;20635;55.812;37.560;2022-11-11T01:23:31;10.57;;;8.43;;
34369;SDS011;20635;55.812;37.560;2022-11-11T01:26:18;9.65;;;7.93;;
34369;SDS011;20635;55.812;37.560;2022-11-11T01:29:04;9.02;;;7.68;;
34369;SDS011;20635;55.812;37.560;2022-11-11T01:31:49;8.75;;;7.53;;
34369;SDS011;20635;55.812;37.560;2022-11-11T01:34:33;10.38;;;7.70;;
34369;SDS011;20635;55.812;37.560;2022-11-11T01:37:17;9.10;;;7.38;;
34369;SDS011;20635;55.812;37.560;2022-11-11T01:40:01;10.63;;;8.20;;
34369;SDS011;20635;55.812;37.560;2022-11-11T01:42:50;10.05;;;8.13;;
34369;SDS011;20635;55.812;37.560;2022-11-11T01:45:56;8.75;;;7.00;;
34369;SDS011;20635;55.812;37.560;2022-11-11T01:48:44;8.00;;;6.85;;
34369;SDS011;20635;55.812;37.560;2022-11-11T01:55:15;8.00;;;6.53;;
34369;SDS011;20635;55.812;37.560;2022-11-11T01:58:04;7.93;;;6.72;;
34369;SDS011;20635;55.812;37.560;2022-11-11T02:00:51;8.82;;;6.95;;
34369;SDS011;20635;55.812;37.560;2022-11-11T02:03:40;7.55;;;6.78;;
34369;SDS011;20635;55.812;37.560;2022-11-11T02:06:47;7.80;;;6.53;;
34369;SDS011;20635;55.812;37.560;2022-11-11T02:09:35;8.80;;;6.53;;
34369;SDS011;20635;55.812;37.560;2022-11-11T02:12:25;7.60;;;6.28;;
34369;SDS011;20635;55.812;37.560;2022-11-11T02:15:28;7.70;;;6.55;;
34369;SDS011;20635;55.812;37.560;2022-11-11T02:18:12;7.75;;;6.72;;
34369;SDS011;20635;55.812;37.560;2022-11-11T02:20:57;7.65;;;6.43;;
34369;SDS011;20635;55.812;37.560;2022-11-11T02:23:43;8.77;;;5.72;;
34369;SDS011;20635;55.812;37.560;2022-11-11T02:26:36;8.93;;;7.43;;
34369;SDS011;20635;55.812;37.560;2022-11-11T02:29:21;6.80;;;6.07;;
34369;SDS011;20635;55.812;37.560;2022-11-11T02:32:07;8.70;;;6.45;;
34369;SDS011;20635;55.812;37.560;2022-11-11T02:34:51;6.63;;;5.93;;
34369;SDS011;20635;55.812;37.560;2022-11-11T02:37:36;6.15;;;5.22;;
34369;SDS011;20635;55.812;37.560;2022-11-11T02:40:20;6.85;;;6.13;;
34369;SDS011;20635;55.812;37.560;2022-11-11T02:43:09;5.68;;;5.13;;
34369;SDS011;20635;55.812;37.560;2022-11-11T02:45:53;8.80;;;5.28;;
34369;SDS011;20635;55.812;37.560;2022-11-11T02:48:38;7.60;;;5.40;;
34369;SDS011;20635;55.812;37.560;2022-11-11T02:51:22;6.32;;;5.20;;
34369;SDS011;20635;55.812;37.560;2022-11-11T02:54:06;5.90;;;4.90;;
34369;SDS011;20635;55.812;37.560;2022-11-11T02:56:51;7.45;;;4.90;;
34369;SDS011;20635;55.812;37.560;2022-11-11T02:59:50;6.50;;;4.43;;
34369;SDS011;20635;55.812;37.560;2022-11-11T03:02:34;5.75;;;4.60;;
34369;SDS011;20635;55.812;37.560;2022-11-11T03:05:19;5.55;;;4.45;;
34369;SDS011;20635;55.812;37.560;2022-11-11T03:08:04;5.63;;;4.80;;
34369;SDS011;20635;55.812;37.560;2022-11-11T03:10:49;4.90;;;4.38;;
34369;SDS011;20635;55.812;37.560;2022-11-11T03:13:33;4.72;;;4.28;;
34369;SDS011;20635;55.812;37.560;2022-11-11T03:16:17;4.72;;;4.05;;
34369;SDS011;20635;55.812;37.560;2022-11-11T03:19:20;7.38;;;4.68;;
34369;SDS011;20635;55.812;37.560;2022-11-11T03:22:05;6.22;;;4.10;;
34369;SDS011;20635;55.812;37.560;2022-11-11T03:24:49;4.05;;;3.65;;
34369;SDS011;20635;55.812;37.560;2022-11-11T03:30:55;3.88;;;3.47;;
34369;SDS011;20635;55.812;37.560;2022-11-11T03:33:41;5.70;;;4.00;;
34369;SDS011;20635;55.812;37.560;2022-11-11T03:36:26;3.85;;;3.47;;
34369;SDS011;20635;55.812;37.560;2022-11-11T03:39:30;3.75;;;3.45;;
34369;SDS011;20635;55.812;37.560;2022-11-11T03:42:15;4.18;;;3.58;;
34369;SDS011;20635;55.812;37.560;2022-11-11T03:44:59;3.88;;;3.55;;
34369;SDS011;20635;55.812;37.560;2022-11-11T03:47:44;4.40;;;3.08;;
34369;SDS011;20635;55.812;37.560;2022-11-11T03:50:28;4.50;;;3.55;;
34369;SDS011;20635;55.812;37.560;2022-11-11T03:53:13;3.90;;;3.25;;
34369;SDS011;20635;55.812;37.560;2022-11-11T03:55:58;3.20;;;2.90;;
34369;SDS011;20635;55.812;37.560;2022-11-11T03:58:42;4.78;;;3.88;;
34369;SDS011;20635;55.812;37.560;2022-11-11T04:01:26;4.70;;;3.08;;
34369;SDS011;20635;55.812;37.560;2022-11-11T04:04:29;3.25;;;2.75;;
34369;SDS011;20635;55.812;37.560;2022-11-11T04:07:33;3.35;;;3.00;;
34369;SDS011;20635;55.812;37.560;2022-11-11T04:10:37;3.65;;;3.33;;
34369;SDS011;20635;55.812;37.560;2022-11-11T04:13:22;3.38;;;3.08;;
34369;SDS011;20635;55.812;37.560;2022-11-11T04:16:26;3.58;;;3.10;;
34369;SDS011;20635;55.812;37.560;2022-11-11T04:19:10;3.55;;;3.17;;
34369;SDS011;20635;55.812;37.560;2022-11-11T04:22:13;3.53;;;3.20;;
34369;SDS011;20635;55.812;37.560;2022-11-11T04:24:58;3.20;;;2.90;;
34369;SDS011;20635;55.812;37.560;2022-11-11T04:28:01;6.00;;;2.65;;
34369;SDS011;20635;55.812;37.560;2022-11-11T04:31:04;4.13;;;2.80;;
34369;SDS011;20635;55.812;37.560;2022-11-11T04:33:48;4.55;;;3.00;;
34369;SDS011;20635;55.812;37.560;2022-11-11T04:36:33;3.22;;;2.92;;
34369;SDS011;20635;55.812;37.560;2022-11-11T04:39:17;2.60;;;2.38;;
34369;SDS011;20635;55.812;37.560;2022-11-11T04:42:21;3.20;;;2.90;;
34369;SDS011;20635;55.812;37.560;2022-11-11T04:45:06;3.85;;;3.20;;
34369;SDS011;20635;55.812;37.560;2022-11-11T04:48:11;3.10;;;2.50;;
34369;SDS011;20635;55.812;37.560;2022-11-11T04:50:56;4.82;;;3.03;;
34369;SDS011;20635;55.812;37.560;2022-11-11T04:53:40;3.20;;;2.90;;
34369;SDS011;20635;55.812;37.560;2022-11-11T04:56:25;4.38;;;3.17;;
34369;SDS011;20635;55.812;37.560;2022-11-11T04:59:28;3.22;;;2.88;;
34369;SDS011;20635;55.812;37.560;2022-11-11T05:02:13;3.33;;;3.00;;
34369;SDS011;20635;55.812;37.560;2022-11-11T05:05:17;5.28;;;2.88;;
34369;SDS011;20635;55.812;37.560;2022-11-11T05:08:02;4.30;;;3.20;;
34369;SDS011;20635;55.812;37.560;2022-11-11T05:11:05;5.38;;;3.20;;
34369;SDS011;20635;55.812;37.560;2022-11-11T05:13:50;4.10;;;2.72;;
34369;SDS011;20635;55.812;37.560;2022-11-11T05:16:55;3.58;;;2.97;;
34369;SDS011;20635;55.812;37.560;2022-11-11T05:19:59;3.40;;;2.58;;
34369;SDS011;20635;55.812;37.560;2022-11-11T05:23:02;2.90;;;2.70;;
34369;SDS011;20635;55.812;37.560;2022-11-11T05:25:47;3.38;;;3.03;;
34369;SDS011;20635;55.812;37.560;2022-11-11T05:28:31;3.38;;;2.83;;
34369;SDS011;20635;55.812;37.560;2022-11-11T05:31:15;2.85;;;2.55;;
34369;SDS011;20635;55.812;37.560;2022-11-11T05:34:00;4.18;;;2.50;;
34369;SDS011;20635;55.812;37.560;2022-11-11T05:36:44;2.80;;;2.50;;
34369;SDS011;20635;55.812;37.560;2022-11-11T05:39:28;3.42;;;2.65;;
34369;SDS011;20635;55.812;37.560;2022-11-11T05:42:13;3.03;;;2.72;;
34369;SDS011;20635;55.812;37.560;2022-11-11T05:44:58;3.53;;;2.55;;
34369;SDS011;20635;55.812;37.560;2022-11-11T05:47:42;2.80;;;2.30;;
34369;SDS011;20635;55.812;37.560;2022-11-11T05:50:26;2.97;;;2.50;;
34369;SDS011;20635;55.812;37.560;2022-11-11T05:53:11;5.57;;;2.63;;
34369;SDS011;20635;55.812;37.560;2022-11-11T05:55:55;2.42;;;2.17;;
34369;SDS011;20635;55.812;37.560;2022-11-11T05:58:40;3.60;;;2.60;;
34369;SDS011;20635;55.812;37.560;2022-11-11T06:01:24;4.13;;;2.72;;
34369;SDS011;20635;55.812;37.560;2022-11-11T06:04:09;3.10;;;2.80;;
34369;SDS011;20635;55.812;37.560;2022-11-11T06:06:53;3.25;;;2.95;;
34369;SDS011;20635;55.812;37.560;2022-11-11T06:09:38;3.03;;;2.60;;
34369;SDS011;20635;55.812;37.560;2022-11-11T06:12:22;2.85;;;2.35;;
34369;SDS011;20635;55.812;37.560;2022-11-11T06:15:07;3.15;;;2.50;;
34369;SDS011;20635;55.812;37.560;2022-11-11T06:17:52;2.95;;;2.60;;
34369;SDS011;20635;55.812;37.560;2022-11-11T06:20:36;3.00;;;2.33;;
34369;SDS011;20635;55.812;37.560;2022-11-11T06:23:21;2.45;;;2.22;;
34369;SDS011;20635;55.812;37.560;2022-11-11T06:26:05;3.33;;;2.53;;
34369;SDS011;20635;55.812;37.560;2022-11-11T06:28:56;2.55;;;2.35;;
34369;SDS011;20635;55.812;37.560;2022-11-11T06:31:40;3.25;;;2.40;;
34369;SDS011;20635;55.812;37.560;2022-11-11T06:34:25;3.60;;;2.38;;
34369;SDS011;20635;55.812;37.560;2022-11-11T06:37:09;2.70;;;2.05;;
34369;SDS011;20635;55.812;37.560;2022-11-11T06:39:54;2.65;;;2.03;;
34369;SDS011;20635;55.812;37.560;2022-11-11T06:42:38;2.60;;;2.20;;
34369;SDS011;20635;55.812;37.560;2022-11-11T06:45:26;2.90;;;2.67;;
34369;SDS011;20635;55.812;37.560;2022-11-11T06:48:11;2.95;;;2.45;;
34369;SDS011;20635;55.812;37.560;2022-11-11T06:51:00;4.75;;;2.35;;
34369;SDS011;20635;55.812;37.560;2022-11-11T06:53:47;4.32;;;2.08;;
34369;SDS011;20635;55.812;37.560;2022-11-11T06:56:32;2.90;;;2.30;;
34369;SDS011;20635;55.812;37.560;2022-11-11T06:59:17;2.90;;;1.80;;
34369;SDS011;20635;55.812;37.560;2022-11-11T07:02:01;3.65;;;2.03;;
34369;SDS011;20635;55.812;37.560;2022-11-11T07:04:46;3.55;;;1.92;;
34369;SDS011;20635;55.812;37.560;2022-11-11T07:07:30;3.53;;;2.05;;
34369;SDS011;20635;55.812;37.560;2022-11-11T07:10:14;2.80;;;2.05;;
34369;SDS011;20635;55.812;37.560;2022-11-11T07:13:00;4.30;;;2.13;;
34369;SDS011;20635;55.812;37.560;2022-11-11T07:15:46;3.63;;;2.13;;
34369;SDS011;20635;55.812;37.560;2022-11-11T07:18:30;2.35;;;2.03;;
34369;SDS011;20635;55.812;37.560;2022-11-11T07:21:14;2.35;;;1.67;;
34369;SDS011;20635;55.812;37.560;2022-11-11T07:23:58;2.58;;;1.85;;
34369;SDS011;20635;55.812;37.560;2022-11-11T07:26:43;3.22;;;2.30;;
34369;SDS011;20635;55.812;37.560;2022-11-11T07:29:27;2.40;;;2.20;;
34369;SDS011;20635;55.812;37.560;2022-11-11T07:32:12;2.85;;;2.03;;
34369;SDS011;20635;55.812;37.560;2022-11-11T07:34:56;2.05;;;1.83;;
34369;SDS011;20635;55.812;37.560;2022-11-11T07:37:41;4.85;;;2.20;;
34369;SDS011;20635;55.812;37.560;2022-11-11T07:40:25;4.32;;;1.90;;
34369;SDS011;20635;55.812;37.560;2022-11-11T07:43:10;3.33;;;2.33;;
34369;SDS011;20635;55.812;37.560;2022-11-11T07:45:54;4.38;;;2.40;;
34369;SDS011;20635;55.812;37.560;2022-11-11T07:48:39;4.68;;;2.30;;
34369;SDS011;20635;55.812;37.560;2022-11-11T07:51:23;3.53;;;2.28;;
34369;SDS011;20635;55.812;37.560;2022-11-11T07:54:08;2.50;;;2.30;;
34369;SDS011;20635;55.812;37.560;2022-11-11T07:56:52;3.42;;;2.20;;
34369;SDS011;20635;55.812;37.560;2022-11-11T07:59:36;2.72;;;2.53;;
34369;SDS011;20635;55.812;37.560;2022-11-11T08:02:21;2.88;;;2.10;;
34369;SDS011;20635;55.812;37.560;2022-11-11T08:05:05;3.60;;;2.20;;
34369;SDS011;20635;55.812;37.560;2022-11-11T08:07:50;2.38;;;2.17;;
34369;SDS011;20635;55.812;37.560;2022-11-11T08:10:34;2.83;;;2.45;;
34369;SDS011;20635;55.812;37.560;2022-11-11T08:13:19;2.97;;;2.60;;
34369;SDS011;20635;55.812;37.560;2022-11-11T08:16:22;3.17;;;2.33;;
34369;SDS011;20635;55.812;37.560;2022-11-11T08:19:06;4.13;;;2.63;;
34369;SDS011;20635;55.812;37.560;2022-11-11T08:21:51;4.43;;;2.25;;
34369;SDS011;20635;55.812;37.560;2022-11-11T08:24:35;3.75;;;2.50;;
34369;SDS011;20635;55.812;37.560;2022-11-11T08:27:20;3.17;;;2.58;;
34369;SDS011;20635;55.812;37.560;2022-11-11T08:30:05;3.00;;;2.67;;
34369;SDS011;20635;55.812;37.560;2022-11-11T08:33:00;4.18;;;2.58;;
34369;SDS011;20635;55.812;37.560;2022-11-11T08:35:46;2.75;;;2.22;;
34369;SDS011;20635;55.812;37.560;2022-11-11T08:38:31;2.90;;;2.60;;
34369;SDS011;20635;55.812;37.560;2022-11-11T08:41:15;2.85;;;2.55;;
34369;SDS011;20635;55.812;37.560;2022-11-11T08:43:59;2.58;;;2.38;;
34369;SDS011;20635;55.812;37.560;2022-11-11T08:46:44;2.80;;;2.55;;
34369;SDS011;20635;55.812;37.560;2022-11-11T08:49:28;2.50;;;2.30;;
34369;SDS011;20635;55.812;37.560;2022-11-11T08:52:13;3.25;;;2.65;;
34369;SDS011;20635;55.812;37.560;2022-11-11T08:54:57;2.50;;;2.30;;
34369;SDS011;20635;55.812;37.560;2022-11-11T08:57:44;3.40;;;2.75;;
34369;SDS011;20635;55.812;37.560;2022-11-11T09:00:29;3.38;;;2.75;;
34369;SDS011;20635;55.812;37.560;2022-11-11T09:03:14;3.95;;;2.88;;
34369;SDS011;20635;55.812;37.560;2022-11-11T09:05:58;3.22;;;2.80;;
34369;SDS011;20635;55.812;37.560;2022-11-11T09:08:43;4.45;;;2.50;;
34369;SDS011;20635;55.812;37.560;2022-11-11T09:11:28;3.20;;;2.90;;
34369;SDS011;20635;55.812;37.560;2022-11-11T09:14:19;3.53;;;2.88;;
34369;SDS011;20635;55.812;37.560;2022-11-11T09:17:04;3.15;;;2.55;;
34369;SDS011;20635;55.812;37.560;2022-11-11T09:19:50;4.28;;;2.58;;
34369;SDS011;20635;55.812;37.560;2022-11-11T09:22:40;5.30;;;2.63;;
34369;SDS011;20635;55.812;37.560;2022-11-11T09:25:26;4.05;;;2.60;;
34369;SDS011;20635;55.812;37.560;2022-11-11T09:28:10;4.68;;;2.30;;
34369;SDS011;20635;55.812;37.560;2022-11-11T09:30:57;2.75;;;2.38;;
34369;SDS011;20635;55.812;37.560;2022-11-11T09:33:43;6.15;;;2.80;;
34369;SDS011;20635;55.812;37.560;2022-11-11T09:36:30;2.88;;;2.35;;
34369;SDS011;20635;55.812;37.560;2022-11-11T09:39:16;3.33;;;2.47;;
34369;SDS011;20635;55.812;37.560;2022-11-11T09:42:13;3.95;;;2.05;;
34369;SDS011;20635;55.812;37.560;2022-11-11T09:51:22;4.25;;;2.05;;
34369;SDS011;20635;55.812;37.560;2022-11-11T09:54:14;2.10;;;1.90;;
34369;SDS011;20635;55.812;37.560;2022-11-11T09:57:04;16.88;;;3.28;;
34369;SDS011;20635;55.812;37.560;2022-11-11T09:59:55;13.82;;;2.88;;
34369;SDS011;20635;55.812;37.560;2022-11-11T10:02:47;15.75;;;2.20;;
34369;SDS011;20635;55.812;37.560;2022-11-11T10:05:39;12.25;;;2.50;;
34369;SDS011;20635;55.812;37.560;2022-11-11T10:08:29;6.72;;;2.13;;
34369;SDS011;20635;55.812;37.560;2022-11-11T10:11:22;6.43;;;2.50;;
34369;SDS011;20635;55.812;37.560;2022-11-11T10:14:12;5.32;;;2.05;;
34369;SDS011;20635;55.812;37.560;2022-11-11T10:23:12;2.40;;;2.08;;
34369;SDS011;20635;55.812;37.560;2022-11-11T10:26:02;3.88;;;2.47;;
34369;SDS011;20635;55.812;37.560;2022-11-11T10:28:55;4.68;;;2.03;;
34369;SDS011;20635;55.812;37.560;2022-11-11T10:31:41;2.90;;;1.92;;
34369;SDS011;20635;55.812;37.560;2022-11-11T10:34:28;5.03;;;2.00;;
34369;SDS011;20635;55.812;37.560;2022-11-11T10:37:17;2.55;;;1.90;;
34369;SDS011;20635;55.812;37.560;2022-11-11T10:40:16;1.90;;;1.63;;
34369;SDS011;20635;55.812;37.560;2022-11-11T10:43:18;3.42;;;1.98;;
34369;SDS011;20635;55.812;37.560;2022-11-11T10:49:14;7.82;;;2.00;;
34369;SDS011;20635;55.812;37.560;2022-11-11T10:52:12;2.97;;;1.80;;
34369;SDS011;20635;55.812;37.560;2022-11-11T10:58:21;3.97;;;2.22;;
34369;SDS011;20635;55.812;37.560;2022-11-11T11:01:17;3.63;;;2.10;;
34369;SDS011;20635;55.812;37.560;2022-11-11T11:04:14;5.97;;;2.15;;
34369;SDS011;20635;55.812;37.560;2022-11-11T11:07:04;2.78;;;1.88;;
34369;SDS011;20635;55.812;37.560;2022-11-11T11:09:53;2.63;;;2.17;;
34369;SDS011;20635;55.812;37.560;2022-11-11T11:12:51;3.92;;;2.30;;
34369;SDS011;20635;55.812;37.560;2022-11-11T11:15:44;5.70;;;1.90;;
34369;SDS011;20635;55.812;37.560;2022-11-11T11:21:20;3.05;;;2.17;;
34369;SDS011;20635;55.812;37.560;2022-11-11T11:24:04;3.25;;;2.10;;
34369;SDS011;20635;55.812;37.560;2022-11-11T11:27:03;3.08;;;2.10;;
34369;SDS011;20635;55.812;37.560;2022-11-11T11:29:50;2.35;;;2.03;;
34369;SDS011;20635;55.812;37.560;2022-11-11T11:32:35;2.95;;;1.90;;
34369;SDS011;20635;55.812;37.560;2022-11-11T11:35:28;3.35;;;2.03;;
34369;SDS011;20635;55.812;37.560;2022-11-11T11:38:18;2.42;;;1.83;;
34369;SDS011;20635;55.812;37.560;2022-11-11T11:41:02;2.83;;;1.80;;
34369;SDS011;20635;55.812;37.560;2022-11-11T11:43:47;2.00;;;1.60;;
34369;SDS011;20635;55.812;37.560;2022-11-11T11:49:25;1.80;;;1.60;;
34369;SDS011;20635;55.812;37.560;2022-11-11T11:55:57;2.15;;;1.80;;
34369;SDS011;20635;55.812;37.560;2022-11-11T12:10:45;3.28;;;1.90;;
34369;SDS011;20635;55.812;37.560;2022-11-11T12:14:02;4.03;;;2.00;;
34369;SDS011;20635;55.812;37.560;2022-11-11T12:17:18;3.42;;;1.83;;
34369;SDS011;20635;55.812;37.560;2022-11-11T12:20:15;1.60;;;1.45;;
34369;SDS011;20635;55.812;37.560;2022-11-11T12:35:02;2.28;;;1.73;;
34369;SDS011;20635;55.812;37.560;2022-11-11T12:37:42;2.45;;;1.60;;
34369;SDS011;20635;55.812;37.560;2022-11-11T12:46:54;3.63;;;1.80;;
34369;SDS011;20635;55.812;37.560;2022-11-11T12:56:21;6.40;;;2.55;;
34369;SDS011;20635;55.812;37.560;2022-11-11T12:59:15;13.18;;;2.30;;
34369;SDS011;20635;55.812;37.560;2022-11-11T13:12:03;34.22;;;2.95;;
34369;SDS011;20635;55.812;37.560;2022-11-11T13:15:04;15.82;;;2.33;;
34369;SDS011;20635;55.812;37.560;2022-11-11T13:17:58;9.63;;;2.10;;
34369;SDS011;20635;55.812;37.560;2022-11-11T13:23:51;6.95;;;1.88;;
34369;SDS011;20635;55.812;37.560;2022-11-11T13:26:37;8.85;;;2.08;;
34369;SDS011;20635;55.812;37.560;2022-11-11T13:32:17;8.80;;;2.10;;
34369;SDS011;20635;55.812;37.560;2022-11-11T13:35:24;8.15;;;2.22;;
34369;SDS011;20635;55.812;37.560;2022-11-11T13:38:11;11.00;;;1.73;;
34369;SDS011;20635;55.812;37.560;2022-11-11T13:41:08;3.67;;;1.90;;
34369;SDS011;20635;55.812;37.560;2022-11-11T13:43:53;11.07;;;2.15;;
34369;SDS011;20635;55.812;37.560;2022-11-11T13:46:45;5.03;;;1.70;;
34369;SDS011;20635;55.812;37.560;2022-11-11T13:49:37;6.40;;;1.80;;
34369;SDS011;20635;55.812;37.560;2022-11-11T13:52:35;3.88;;;1.60;;
34369;SDS011;20635;55.812;37.560;2022-11-11T13:55:26;3.38;;;1.83;;
34369;SDS011;20635;55.812;37.560;2022-11-11T13:58:25;5.00;;;1.67;;
34369;SDS011;20635;55.812;37.560;2022-11-11T14:01:12;8.20;;;1.88;;
34369;SDS011;20635;55.812;37.560;2022-11-11T14:03:59;2.85;;;1.40;;
34369;SDS011;20635;55.812;37.560;2022-11-11T14:12:40;5.53;;;1.52;;
34369;SDS011;20635;55.812;37.560;2022-11-11T14:21:07;2.30;;;1.38;;
34369;SDS011;20635;55.812;37.560;2022-11-11T14:23:52;2.47;;;1.40;;
34369;SDS011;20635;55.812;37.560;2022-11-11T14:26:37;2.05;;;1.58;;
34369;SDS011;20635;55.812;37.560;2022-11-11T14:29:22;3.30;;;1.60;;
34369;SDS011;20635;55.812;37.560;2022-11-11T14:35:43;1.50;;;1.20;;
34369;SDS011;20635;55.812;37.560;2022-11-11T14:50:00;5.90;;;1.38;;
34369;SDS011;20635;55.812;37.560;2022-11-11T14:52:44;4.05;;;1.27;;
34369;SDS011;20635;55.812;37.560;2022-11-11T14:55:34;14.88;;;2.45;;
34369;SDS011;20635;55.812;37.560;2022-11-11T14:58:24;6.03;;;1.35;;
34369;SDS011;20635;55.812;37.560;2022-11-11T15:01:16;4.53;;;1.52;;
34369;SDS011;20635;55.812;37.560;2022-11-11T15:04:03;2.47;;;1.30;;
34369;SDS011;20635;55.812;37.560;2022-11-11T15:06:51;1.55;;;0.90;;
34369;SDS011;20635;55.812;37.560;2022-11-11T15:09:48;3.63;;;1.30;;
34369;SDS011;20635;55.812;37.560;2022-11-11T15:12:56;1.55;;;1.15;;
34369;SDS011;20635;55.812;37.560;2022-11-11T15:34:33;4.45;;;1.15;;
34369;SDS011;20635;55.812;37.560;2022-11-11T15:37:27;1.85;;;1.20;;
34369;SDS011;20635;55.812;37.560;2022-11-11T15:40:19;0.93;;;0.80;;
34369;SDS011;20635;55.812;37.560;2022-11-11T15:43:04;3.53;;;1.52;;
34369;SDS011;20635;55.812;37.560;2022-11-11T15:45:49;2.10;;;1.13;;
34369;SDS011;20635;55.812;37.560;2022-11-11T15:48:57;1.95;;;1.08;;
34369;SDS011;20635;55.812;37.560;2022-11-11T15:51:41;2.40;;;1.20;;
34369;SDS011;20635;55.812;37.560;2022-11-11T15:54:26;1.50;;;0.85;;
34369;SDS011;20635;55.812;37.560;2022-11-11T16:03:14;2.65;;;1.15;;
34369;SDS011;20635;55.812;37.560;2022-11-11T16:06:20;2.65;;;0.95;;
34369;SDS011;20635;55.812;37.560;2022-11-11T16:09:04;2.60;;;1.30;;
34369;SDS011;20635;55.812;37.560;2022-11-11T16:11:53;4.28;;;1.10;;
34369;SDS011;20635;55.812;37.560;2022-11-11T16:14:41;2.03;;;1.08;;
34369;SDS011;20635;55.812;37.560;2022-11-11T16:17:36;3.78;;;1.00;;
34369;SDS011;20635;55.812;37.560;2022-11-11T16:20:27;1.92;;;1.15;;
34369;SDS011;20635;55.812;37.560;2022-11-11T16:23:21;3.42;;;1.33;;
34369;SDS011;20635;55.812;37.560;2022-11-11T16:26:07;2.92;;;1.00;;
34369;SDS011;20635;55.812;37.560;2022-11-11T16:28:52;3.97;;;1.40;;
34369;SDS011;20635;55.812;37.560;2022-11-11T16:31:39;2.80;;;1.10;;
34369;SDS011;20635;55.812;37.560;2022-11-11T16:37:12;2.85;;;1.30;;
34369;SDS011;20635;55.812;37.560;2022-11-11T16:46:12;2.83;;;1.00;;
34369;SDS011;20635;55.812;37.560;2022-11-11T16:48:57;3.22;;;1.40;;
34369;SDS011;20635;55.812;37.560;2022-11-11T16:51:43;2.00;;;1.30;;
34369;SDS011;20635;55.812;37.560;2022-11-11T16:54:30;5.65;;;1.65;;
34369;SDS011;20635;55.812;37.560;2022-11-11T16:57:18;2.10;;;0.85;;
34369;SDS011;20635;55.812;37.560;2022-11-11T17:00:06;2.58;;;1.02;;
34369;SDS011;20635;55.812;37.560;2022-11-11T17:03:06;2.30;;;1.35;;
34369;SDS011;20635;55.812;37.560;2022-11-11T17:08:40;2.30;;;0.98;;
34369;SDS011;20635;55.812;37.560;2022-11-11T17:14:21;1.83;;;0.90;;
34369;SDS011;20635;55.812;37.560;2022-11-11T17:17:06;1.40;;;0.90;;
34369;SDS011;20635;55.812;37.560;2022-11-11T17:19:52;1.27;;;0.90;;
34369;SDS011;20635;55.812;37.560;2022-11-11T17:22:49;1.83;;;0.80;;
34369;SDS011;20635;55.812;37.560;2022-11-11T17:25:35;2.53;;;0.90;;
34369;SDS011;20635;55.812;37.560;2022-11-11T17:28:19;1.20;;;1.10;;
34369;SDS011;20635;55.812;37.560;2022-11-11T17:31:06;0.80;;;0.80;;
34369;SDS011;20635;55.812;37.560;2022-11-11T17:33:53;1.05;;;0.90;;
34369;SDS011;20635;55.812;37.560;2022-11-11T17:36:37;2.13;;;0.93;;
34369;SDS011;20635;55.812;37.560;2022-11-11T17:39:22;1.55;;;0.80;;
34369;SDS011;20635;55.812;37.560;2022-11-11T17:42:07;1.27;;;0.90;;
34369;SDS011;20635;55.812;37.560;2022-11-11T17:44:51;2.47;;;1.20;;
34369;SDS011;20635;55.812;37.560;2022-11-11T17:47:36;2.20;;;0.98;;
34369;SDS011;20635;55.812;37.560;2022-11-11T17:50:20;1.65;;;1.08;;
34369;SDS011;20635;55.812;37.560;2022-11-11T17:53:05;1.25;;;1.00;;
34369;SDS011;20635;55.812;37.560;2022-11-11T17:55:50;2.67;;;1.10;;
34369;SDS011;20635;55.812;37.560;2022-11-11T17:58:35;1.58;;;0.93;;
34369;SDS011;20635;55.812;37.560;2022-11-11T18:01:20;1.98;;;1.00;;
34369;SDS011;20635;55.812;37.560;2022-11-11T18:04:05;1.65;;;1.00;;
34369;SDS011;20635;55.812;37.560;2022-11-11T18:06:49;2.35;;;0.93;;
34369;SDS011;20635;55.812;37.560;2022-11-11T18:09:33;1.77;;;0.80;;
34369;SDS011;20635;55.812;37.560;2022-11-11T18:12:18;1.42;;;0.95;;
34369;SDS011;20635;55.812;37.560;2022-11-11T18:15:06;2.72;;;1.10;;
34369;SDS011;20635;55.812;37.560;2022-11-11T18:17:51;1.33;;;1.13;;
34369;SDS011;20635;55.812;37.560;2022-11-11T18:20:35;0.80;;;0.80;;
34369;SDS011;20635;55.812;37.560;2022-11-11T18:23:19;1.85;;;0.80;;
34369;SDS011;20635;55.812;37.560;2022-11-11T18:26:05;1.38;;;1.00;;
34369;SDS011;20635;55.812;37.560;2022-11-11T18:28:51;1.25;;;1.00;;
34369;SDS011;20635;55.812;37.560;2022-11-11T18:31:35;1.65;;;0.93;;
34369;SDS011;20635;55.812;37.560;2022-11-11T18:34:19;0.77;;;0.77;;
34369;SDS011;20635;55.812;37.560;2022-11-11T18:37:04;1.45;;;1.00;;
34369;SDS011;20635;55.812;37.560;2022-11-11T18:39:49;1.17;;;0.90;;
34369;SDS011;20635;55.812;37.560;2022-11-11T18:42:34;1.83;;;1.13;;
34369;SDS011;20635;55.812;37.560;2022-11-11T18:45:18;1.73;;;0.90;;
34369;SDS011;20635;55.812;37.560;2022-11-11T18:48:02;1.40;;;0.98;;
34369;SDS011;20635;55.812;37.560;2022-11-11T18:50:52;5.28;;;1.77;;
34369;SDS011;20635;55.812;37.560;2022-11-11T18:53:38;1.20;;;0.90;;
34369;SDS011;20635;55.812;37.560;2022-11-11T18:56:24;1.55;;;1.13;;
34369;SDS011;20635;55.812;37.560;2022-11-11T18:59:09;1.20;;;0.80;;
34369;SDS011;20635;55.812;37.560;2022-11-11T19:01:53;1.20;;;1.08;;
34369;SDS011;20635;55.812;37.560;2022-11-11T19:04:39;1.30;;;0.93;;
34369;SDS011;20635;55.812;37.560;2022-11-11T19:07:23;1.17;;;1.02;;
34369;SDS011;20635;55.812;37.560;2022-11-11T19:10:07;1.77;;;1.20;;
34369;SDS011;20635;55.812;37.560;2022-11-11T19:12:52;1.83;;;1.00;;